sensor_id;sensor_type;location;lat;lon;timestamp;P1;durP1;ratioP1;P2;durP2;ratioP2
58685;SDS011;44465;53.206;-6.106;2023-07-20T00:00:59;4.78;;;1.63;;
58685;SDS011;44465;53.206;-6.106;2023-07-20T00:03:24;3.17;;;1.70;;
58685;SDS011;44465;53.206;-6.106;2023-07-20T00:05:50;2.33;;;1.25;;
58685;SDS011;44465;53.206;-6.106;2023-07-20T00:08:18;3.50;;;1.40;;
58685;SDS011;44465;53.206;-6.106;2023-07-20T00:10:43;4.10;;;1.55;;
58685;SDS011;44465;53.206;-6.106;2023-07-20T00:13:10;2.55;;;1.30;;
58685;SDS011;44465;53.206;-6.106;2023-07-20T00:15:36;1.83;;;1.17;;
58685;SDS011;44465;53.206;-6.106;2023-07-20T00:18:03;2.20;;;1.45;;
58685;SDS011;44465;53.206;-6.106;2023-07-20T00:20:29;1.60;;;1.48;;
58685;SDS011;44465;53.206;-6.106;2023-07-20T00:22:54;1.35;;;1.23;;
58685;SDS011;44465;53.206;-6.106;2023-07-20T00:25:20;3.65;;;1.48;;
58685;SDS011;44465;53.206;-6.106;2023-07-20T00:27:45;1.50;;;1.25;;
58685;SDS011;44465;53.206;-6.106;2023-07-20T00:30:11;4.22;;;1.35;;
58685;SDS011;44465;53.206;-6.106;2023-07-20T00:32:37;3.58;;;1.40;;
58685;SDS011;44465;53.206;-6.106;2023-07-20T00:35:02;3.08;;;1.95;;
58685;SDS011;44465;53.206;-6.106;2023-07-20T00:37:28;2.03;;;1.45;;
58685;SDS011;44465;53.206;-6.106;2023-07-20T00:39:54;1.92;;;1.20;;
58685;SDS011;44465;53.206;-6.106;2023-07-20T00:42:19;3.35;;;1.60;;
58685;SDS011;44465;53.206;-6.106;2023-07-20T00:44:45;2.35;;;1.38;;
58685;SDS011;44465;53.206;-6.106;2023-07-20T00:47:10;1.48;;;1.38;;
58685;SDS011;44465;53.206;-6.106;2023-07-20T00:49:37;2.55;;;1.83;;
58685;SDS011;44465;53.206;-6.106;2023-07-20T00:52:03;2.67;;;1.50;;
58685;SDS011;44465;53.206;-6.106;2023-07-20T00:54:31;1.33;;;1.23;;
58685;SDS011;44465;53.206;-6.106;2023-07-20T00:56:57;2.80;;;1.50;;
58685;SDS011;44465;53.206;-6.106;2023-07-20T00:59:24;2.35;;;1.30;;
58685;SDS011;44465;53.206;-6.106;2023-07-20T01:01:49;2.05;;;1.50;;
58685;SDS011;44465;53.206;-6.106;2023-07-20T01:04:15;1.17;;;1.08;;
58685;SDS011;44465;53.206;-6.106;2023-07-20T01:09:35;1.63;;;1.30;;
58685;SDS011;44465;53.206;-6.106;2023-07-20T01:14:49;2.42;;;1.23;;
58685;SDS011;44465;53.206;-6.106;2023-07-20T01:17:16;1.23;;;1.15;;
58685;SDS011;44465;53.206;-6.106;2023-07-20T01:19:42;1.27;;;1.17;;
58685;SDS011;44465;53.206;-6.106;2023-07-20T01:25:35;2.67;;;1.60;;
58685;SDS011;44465;53.206;-6.106;2023-07-20T01:32:54;1.52;;;1.10;;
58685;SDS011;44465;53.206;-6.106;2023-07-20T01:35:22;1.75;;;1.40;;
58685;SDS011;44465;53.206;-6.106;2023-07-20T01:37:52;1.52;;;1.10;;
58685;SDS011;44465;53.206;-6.106;2023-07-20T01:40:19;2.25;;;1.50;;
58685;SDS011;44465;53.206;-6.106;2023-07-20T01:42:45;1.02;;;1.00;;
58685;SDS011;44465;53.206;-6.106;2023-07-20T01:45:11;1.63;;;1.35;;
58685;SDS011;44465;53.206;-6.106;2023-07-20T01:47:37;1.42;;;1.33;;
58685;SDS011;44465;53.206;-6.106;2023-07-20T01:50:03;1.65;;;1.27;;
58685;SDS011;44465;53.206;-6.106;2023-07-20T01:52:28;3.28;;;1.50;;
58685;SDS011;44465;53.206;-6.106;2023-07-20T01:54:56;2.00;;;1.33;;
58685;SDS011;44465;53.206;-6.106;2023-07-20T01:57:21;1.00;;;0.95;;
58685;SDS011;44465;53.206;-6.106;2023-07-20T01:59:47;1.50;;;1.40;;
58685;SDS011;44465;53.206;-6.106;2023-07-20T02:02:12;1.60;;;1.15;;
58685;SDS011;44465;53.206;-6.106;2023-07-20T02:04:38;1.50;;;1.40;;
58685;SDS011;44465;53.206;-6.106;2023-07-20T02:07:03;2.60;;;1.20;;
58685;SDS011;44465;53.206;-6.106;2023-07-20T02:09:29;1.20;;;1.08;;
58685;SDS011;44465;53.206;-6.106;2023-07-20T02:11:54;2.58;;;1.40;;
58685;SDS011;44465;53.206;-6.106;2023-07-20T02:14:20;1.08;;;1.02;;
58685;SDS011;44465;53.206;-6.106;2023-07-20T02:16:47;1.92;;;1.20;;
58685;SDS011;44465;53.206;-6.106;2023-07-20T02:19:17;1.50;;;1.17;;
58685;SDS011;44465;53.206;-6.106;2023-07-20T02:21:42;1.33;;;1.08;;
58685;SDS011;44465;53.206;-6.106;2023-07-20T02:24:08;1.17;;;1.02;;
58685;SDS011;44465;53.206;-6.106;2023-07-20T02:26:33;1.38;;;1.20;;
58685;SDS011;44465;53.206;-6.106;2023-07-20T02:28:59;1.35;;;1.08;;
58685;SDS011;44465;53.206;-6.106;2023-07-20T02:31:24;1.10;;;1.10;;
58685;SDS011;44465;53.206;-6.106;2023-07-20T02:33:50;0.95;;;0.90;;
58685;SDS011;44465;53.206;-6.106;2023-07-20T02:36:15;2.30;;;1.38;;
58685;SDS011;44465;53.206;-6.106;2023-07-20T02:38:42;1.30;;;1.20;;
58685;SDS011;44465;53.206;-6.106;2023-07-20T02:41:07;1.38;;;1.27;;
58685;SDS011;44465;53.206;-6.106;2023-07-20T02:43:33;1.10;;;1.00;;
58685;SDS011;44465;53.206;-6.106;2023-07-20T02:45:58;2.25;;;1.30;;
58685;SDS011;44465;53.206;-6.106;2023-07-20T02:48:24;1.77;;;1.45;;
58685;SDS011;44465;53.206;-6.106;2023-07-20T02:50:49;1.88;;;1.20;;
58685;SDS011;44465;53.206;-6.106;2023-07-20T02:53:15;1.20;;;1.10;;
58685;SDS011;44465;53.206;-6.106;2023-07-20T02:55:40;1.17;;;1.02;;
58685;SDS011;44465;53.206;-6.106;2023-07-20T02:58:06;1.27;;;1.10;;
58685;SDS011;44465;53.206;-6.106;2023-07-20T03:00:32;1.35;;;1.25;;
58685;SDS011;44465;53.206;-6.106;2023-07-20T03:02:58;1.10;;;0.95;;
58685;SDS011;44465;53.206;-6.106;2023-07-20T03:05:23;2.85;;;1.15;;
58685;SDS011;44465;53.206;-6.106;2023-07-20T03:07:53;1.27;;;1.17;;
58685;SDS011;44465;53.206;-6.106;2023-07-20T03:10:19;2.15;;;1.20;;
58685;SDS011;44465;53.206;-6.106;2023-07-20T03:12:44;1.52;;;0.90;;
58685;SDS011;44465;53.206;-6.106;2023-07-20T03:15:10;1.40;;;1.30;;
58685;SDS011;44465;53.206;-6.106;2023-07-20T03:17:35;1.73;;;1.33;;
58685;SDS011;44465;53.206;-6.106;2023-07-20T03:20:03;1.02;;;1.02;;
58685;SDS011;44465;53.206;-6.106;2023-07-20T03:22:30;1.20;;;1.10;;
58685;SDS011;44465;53.206;-6.106;2023-07-20T03:24:55;0.80;;;0.80;;
58685;SDS011;44465;53.206;-6.106;2023-07-20T03:27:21;1.27;;;1.02;;
58685;SDS011;44465;53.206;-6.106;2023-07-20T03:29:46;1.20;;;1.10;;
58685;SDS011;44465;53.206;-6.106;2023-07-20T03:32:12;1.05;;;0.90;;
58685;SDS011;44465;53.206;-6.106;2023-07-20T03:34:37;0.95;;;0.95;;
58685;SDS011;44465;53.206;-6.106;2023-07-20T03:37:03;1.20;;;1.10;;
58685;SDS011;44465;53.206;-6.106;2023-07-20T03:39:30;1.52;;;1.10;;
58685;SDS011;44465;53.206;-6.106;2023-07-20T03:41:57;1.08;;;1.02;;
58685;SDS011;44465;53.206;-6.106;2023-07-20T03:44:23;1.08;;;0.90;;
58685;SDS011;44465;53.206;-6.106;2023-07-20T03:46:48;1.35;;;1.00;;
58685;SDS011;44465;53.206;-6.106;2023-07-20T03:49:14;1.33;;;0.90;;
58685;SDS011;44465;53.206;-6.106;2023-07-20T03:51:39;0.70;;;0.70;;
58685;SDS011;44465;53.206;-6.106;2023-07-20T03:54:05;1.40;;;1.20;;
58685;SDS011;44465;53.206;-6.106;2023-07-20T03:56:30;1.30;;;1.20;;
58685;SDS011;44465;53.206;-6.106;2023-07-20T03:59:00;1.15;;;1.05;;
58685;SDS011;44465;53.206;-6.106;2023-07-20T04:01:26;1.00;;;0.90;;
58685;SDS011;44465;53.206;-6.106;2023-07-20T04:03:51;0.90;;;0.90;;
58685;SDS011;44465;53.206;-6.106;2023-07-20T04:06:16;1.10;;;1.10;;
58685;SDS011;44465;53.206;-6.106;2023-07-20T04:08:43;1.25;;;1.15;;
58685;SDS011;44465;53.206;-6.106;2023-07-20T04:11:09;1.25;;;1.15;;
58685;SDS011;44465;53.206;-6.106;2023-07-20T04:13:34;1.25;;;1.00;;
58685;SDS011;44465;53.206;-6.106;2023-07-20T04:16:00;2.08;;;0.88;;
58685;SDS011;44465;53.206;-6.106;2023-07-20T04:18:25;1.35;;;1.23;;
58685;SDS011;44465;53.206;-6.106;2023-07-20T04:20:51;1.40;;;1.23;;
58685;SDS011;44465;53.206;-6.106;2023-07-20T04:23:16;1.20;;;1.10;;
58685;SDS011;44465;53.206;-6.106;2023-07-20T04:25:42;1.40;;;1.30;;
58685;SDS011;44465;53.206;-6.106;2023-07-20T04:28:11;1.45;;;1.00;;
58685;SDS011;44465;53.206;-6.106;2023-07-20T04:30:38;1.42;;;1.23;;
58685;SDS011;44465;53.206;-6.106;2023-07-20T04:33:05;1.20;;;1.10;;
58685;SDS011;44465;53.206;-6.106;2023-07-20T04:35:47;1.10;;;1.00;;
58685;SDS011;44465;53.206;-6.106;2023-07-20T04:38:26;1.17;;;1.10;;
58685;SDS011;44465;53.206;-6.106;2023-07-20T04:41:00;1.42;;;1.23;;
58685;SDS011;44465;53.206;-6.106;2023-07-20T04:43:28;1.35;;;1.13;;
58685;SDS011;44465;53.206;-6.106;2023-07-20T04:45:54;1.20;;;1.10;;
58685;SDS011;44465;53.206;-6.106;2023-07-20T04:48:20;1.20;;;1.10;;
58685;SDS011;44465;53.206;-6.106;2023-07-20T04:50:50;1.27;;;1.17;;
58685;SDS011;44465;53.206;-6.106;2023-07-20T04:53:15;1.20;;;1.10;;
58685;SDS011;44465;53.206;-6.106;2023-07-20T04:55:47;1.23;;;1.00;;
58685;SDS011;44465;53.206;-6.106;2023-07-20T04:58:18;1.38;;;1.10;;
58685;SDS011;44465;53.206;-6.106;2023-07-20T05:00:45;1.27;;;1.17;;
58685;SDS011;44465;53.206;-6.106;2023-07-20T05:03:10;1.20;;;1.10;;
58685;SDS011;44465;53.206;-6.106;2023-07-20T05:05:36;2.13;;;1.10;;
58685;SDS011;44465;53.206;-6.106;2023-07-20T05:08:03;1.38;;;1.27;;
58685;SDS011;44465;53.206;-6.106;2023-07-20T05:10:29;1.52;;;1.15;;
58685;SDS011;44465;53.206;-6.106;2023-07-20T05:12:54;1.15;;;1.15;;
58685;SDS011;44465;53.206;-6.106;2023-07-20T05:15:20;1.50;;;0.90;;
58685;SDS011;44465;53.206;-6.106;2023-07-20T05:17:45;1.33;;;1.23;;
58685;SDS011;44465;53.206;-6.106;2023-07-20T05:20:14;1.83;;;1.10;;
58685;SDS011;44465;53.206;-6.106;2023-07-20T05:22:39;1.00;;;0.95;;
58685;SDS011;44465;53.206;-6.106;2023-07-20T05:25:08;1.13;;;1.05;;
58685;SDS011;44465;53.206;-6.106;2023-07-20T05:27:38;1.30;;;1.10;;
58685;SDS011;44465;53.206;-6.106;2023-07-20T05:30:05;2.55;;;1.40;;
58685;SDS011;44465;53.206;-6.106;2023-07-20T05:32:32;1.23;;;1.13;;
58685;SDS011;44465;53.206;-6.106;2023-07-20T05:34:58;1.42;;;1.10;;
58685;SDS011;44465;53.206;-6.106;2023-07-20T05:37:23;1.27;;;1.20;;
58685;SDS011;44465;53.206;-6.106;2023-07-20T05:39:49;2.08;;;1.30;;
58685;SDS011;44465;53.206;-6.106;2023-07-20T05:42:15;1.23;;;1.10;;
58685;SDS011;44465;53.206;-6.106;2023-07-20T05:44:41;1.42;;;1.10;;
58685;SDS011;44465;53.206;-6.106;2023-07-20T05:47:06;1.00;;;1.00;;
58685;SDS011;44465;53.206;-6.106;2023-07-20T05:49:32;2.17;;;1.60;;
58685;SDS011;44465;53.206;-6.106;2023-07-20T05:51:58;0.88;;;0.88;;
58685;SDS011;44465;53.206;-6.106;2023-07-20T05:54:23;1.35;;;0.98;;
58685;SDS011;44465;53.206;-6.106;2023-07-20T05:56:50;1.90;;;1.20;;
58685;SDS011;44465;53.206;-6.106;2023-07-20T05:59:16;1.38;;;1.27;;
58685;SDS011;44465;53.206;-6.106;2023-07-20T06:01:41;1.15;;;1.08;;
58685;SDS011;44465;53.206;-6.106;2023-07-20T06:04:08;1.30;;;1.20;;
58685;SDS011;44465;53.206;-6.106;2023-07-20T06:06:33;1.42;;;1.30;;
58685;SDS011;44465;53.206;-6.106;2023-07-20T06:08:59;1.73;;;1.38;;
58685;SDS011;44465;53.206;-6.106;2023-07-20T06:11:29;1.23;;;1.13;;
58685;SDS011;44465;53.206;-6.106;2023-07-20T06:13:55;1.23;;;1.17;;
58685;SDS011;44465;53.206;-6.106;2023-07-20T06:16:21;1.05;;;0.95;;
58685;SDS011;44465;53.206;-6.106;2023-07-20T06:18:46;1.20;;;1.17;;
58685;SDS011;44465;53.206;-6.106;2023-07-20T06:21:12;1.25;;;1.15;;
58685;SDS011;44465;53.206;-6.106;2023-07-20T06:23:38;1.42;;;1.20;;
58685;SDS011;44465;53.206;-6.106;2023-07-20T06:26:08;1.33;;;1.23;;
58685;SDS011;44465;53.206;-6.106;2023-07-20T06:28:33;1.50;;;1.17;;
58685;SDS011;44465;53.206;-6.106;2023-07-20T06:31:03;1.63;;;1.40;;
58685;SDS011;44465;53.206;-6.106;2023-07-20T06:33:29;1.58;;;1.33;;
58685;SDS011;44465;53.206;-6.106;2023-07-20T06:35:54;1.23;;;1.20;;
58685;SDS011;44465;53.206;-6.106;2023-07-20T06:38:22;1.30;;;1.20;;
58685;SDS011;44465;53.206;-6.106;2023-07-20T06:40:51;1.40;;;1.30;;
58685;SDS011;44465;53.206;-6.106;2023-07-20T06:43:17;1.63;;;1.30;;
58685;SDS011;44465;53.206;-6.106;2023-07-20T06:45:43;1.48;;;1.30;;
58685;SDS011;44465;53.206;-6.106;2023-07-20T06:48:09;1.30;;;1.20;;
58685;SDS011;44465;53.206;-6.106;2023-07-20T06:50:34;1.13;;;0.98;;
58685;SDS011;44465;53.206;-6.106;2023-07-20T06:53:00;0.90;;;0.90;;
58685;SDS011;44465;53.206;-6.106;2023-07-20T06:55:28;1.52;;;1.30;;
58685;SDS011;44465;53.206;-6.106;2023-07-20T06:57:53;1.63;;;1.45;;
58685;SDS011;44465;53.206;-6.106;2023-07-20T07:00:19;1.33;;;1.20;;
58685;SDS011;44465;53.206;-6.106;2023-07-20T07:02:45;1.83;;;1.50;;
58685;SDS011;44465;53.206;-6.106;2023-07-20T07:05:10;1.30;;;1.20;;
58685;SDS011;44465;53.206;-6.106;2023-07-20T07:07:35;1.48;;;1.38;;
58685;SDS011;44465;53.206;-6.106;2023-07-20T07:10:02;1.50;;;1.40;;
58685;SDS011;44465;53.206;-6.106;2023-07-20T07:12:30;1.45;;;1.35;;
58685;SDS011;44465;53.206;-6.106;2023-07-20T07:14:55;1.40;;;1.30;;
58685;SDS011;44465;53.206;-6.106;2023-07-20T07:17:21;2.17;;;1.33;;
58685;SDS011;44465;53.206;-6.106;2023-07-20T07:19:46;1.60;;;1.40;;
58685;SDS011;44465;53.206;-6.106;2023-07-20T07:22:12;1.52;;;1.42;;
58685;SDS011;44465;53.206;-6.106;2023-07-20T07:24:39;1.50;;;1.40;;
58685;SDS011;44465;53.206;-6.106;2023-07-20T07:27:08;1.77;;;1.67;;
58685;SDS011;44465;53.206;-6.106;2023-07-20T07:29:34;1.52;;;1.35;;
58685;SDS011;44465;53.206;-6.106;2023-07-20T07:31:59;1.60;;;1.50;;
58685;SDS011;44465;53.206;-6.106;2023-07-20T07:34:25;1.73;;;1.63;;
58685;SDS011;44465;53.206;-6.106;2023-07-20T07:36:51;1.80;;;1.70;;
58685;SDS011;44465;53.206;-6.106;2023-07-20T07:39:16;1.88;;;1.60;;
58685;SDS011;44465;53.206;-6.106;2023-07-20T07:41:42;1.52;;;1.42;;
58685;SDS011;44465;53.206;-6.106;2023-07-20T07:44:07;1.90;;;1.70;;
58685;SDS011;44465;53.206;-6.106;2023-07-20T07:46:33;2.28;;;1.88;;
58685;SDS011;44465;53.206;-6.106;2023-07-20T07:48:59;1.50;;;1.40;;
58685;SDS011;44465;53.206;-6.106;2023-07-20T07:51:24;2.60;;;1.90;;
58685;SDS011;44465;53.206;-6.106;2023-07-20T07:56:17;1.92;;;1.80;;
58685;SDS011;44465;53.206;-6.106;2023-07-20T07:58:46;2.05;;;1.73;;
58685;SDS011;44465;53.206;-6.106;2023-07-20T08:01:12;2.20;;;2.00;;
58685;SDS011;44465;53.206;-6.106;2023-07-20T08:03:37;2.40;;;2.03;;
58685;SDS011;44465;53.206;-6.106;2023-07-20T08:06:02;2.08;;;1.73;;
58685;SDS011;44465;53.206;-6.106;2023-07-20T08:08:30;2.47;;;1.93;;
58685;SDS011;44465;53.206;-6.106;2023-07-20T08:10:56;2.30;;;1.95;;
58685;SDS011;44465;53.206;-6.106;2023-07-20T08:13:22;2.10;;;1.80;;
58685;SDS011;44465;53.206;-6.106;2023-07-20T08:15:49;3.25;;;2.00;;
58685;SDS011;44465;53.206;-6.106;2023-07-20T08:18:16;2.70;;;2.10;;
58685;SDS011;44465;53.206;-6.106;2023-07-20T08:20:46;2.22;;;2.03;;
58685;SDS011;44465;53.206;-6.106;2023-07-20T08:23:12;2.65;;;2.13;;
58685;SDS011;44465;53.206;-6.106;2023-07-20T08:25:38;2.60;;;2.08;;
58685;SDS011;44465;53.206;-6.106;2023-07-20T08:28:07;2.92;;;2.15;;
58685;SDS011;44465;53.206;-6.106;2023-07-20T08:30:53;2.40;;;2.20;;
58685;SDS011;44465;53.206;-6.106;2023-07-20T08:33:18;3.22;;;2.28;;
58685;SDS011;44465;53.206;-6.106;2023-07-20T08:35:48;3.00;;;2.45;;
58685;SDS011;44465;53.206;-6.106;2023-07-20T08:38:14;2.78;;;2.05;;
58685;SDS011;44465;53.206;-6.106;2023-07-20T08:40:40;3.25;;;2.30;;
58685;SDS011;44465;53.206;-6.106;2023-07-20T08:43:07;2.63;;;2.42;;
58685;SDS011;44465;53.206;-6.106;2023-07-20T08:45:35;2.78;;;2.22;;
58685;SDS011;44465;53.206;-6.106;2023-07-20T08:48:04;3.65;;;2.40;;
58685;SDS011;44465;53.206;-6.106;2023-07-20T08:50:31;3.10;;;2.42;;
58685;SDS011;44465;53.206;-6.106;2023-07-20T08:52:58;3.58;;;2.63;;
58685;SDS011;44465;53.206;-6.106;2023-07-20T08:55:25;3.00;;;2.27;;
58685;SDS011;44465;53.206;-6.106;2023-07-20T09:00:21;3.13;;;2.47;;
58685;SDS011;44465;53.206;-6.106;2023-07-20T09:02:49;4.30;;;2.77;;
58685;SDS011;44465;53.206;-6.106;2023-07-20T09:05:18;3.05;;;2.33;;
58685;SDS011;44465;53.206;-6.106;2023-07-20T09:07:45;3.08;;;2.55;;
58685;SDS011;44465;53.206;-6.106;2023-07-20T09:10:10;3.67;;;2.58;;
58685;SDS011;44465;53.206;-6.106;2023-07-20T09:12:38;3.65;;;2.70;;
58685;SDS011;44465;53.206;-6.106;2023-07-20T09:15:05;3.15;;;2.40;;
58685;SDS011;44465;53.206;-6.106;2023-07-20T09:17:31;3.47;;;2.40;;
58685;SDS011;44465;53.206;-6.106;2023-07-20T09:19:56;3.58;;;2.72;;
58685;SDS011;44465;53.206;-6.106;2023-07-20T09:22:22;3.25;;;2.40;;
58685;SDS011;44465;53.206;-6.106;2023-07-20T09:24:54;2.80;;;2.50;;
58685;SDS011;44465;53.206;-6.106;2023-07-20T09:27:20;3.42;;;2.67;;
58685;SDS011;44465;53.206;-6.106;2023-07-20T09:29:49;3.38;;;2.67;;
58685;SDS011;44465;53.206;-6.106;2023-07-20T09:32:19;3.08;;;2.60;;
58685;SDS011;44465;53.206;-6.106;2023-07-20T09:34:45;3.05;;;2.42;;
58685;SDS011;44465;53.206;-6.106;2023-07-20T09:37:11;3.58;;;2.83;;
58685;SDS011;44465;53.206;-6.106;2023-07-20T09:39:44;3.80;;;2.92;;
58685;SDS011;44465;53.206;-6.106;2023-07-20T09:42:11;2.95;;;2.40;;
58685;SDS011;44465;53.206;-6.106;2023-07-20T09:44:38;4.32;;;3.03;;
58685;SDS011;44465;53.206;-6.106;2023-07-20T09:47:04;4.82;;;2.80;;
58685;SDS011;44465;53.206;-6.106;2023-07-20T09:49:30;3.78;;;2.67;;
58685;SDS011;44465;53.206;-6.106;2023-07-20T09:51:57;3.55;;;2.72;;
58685;SDS011;44465;53.206;-6.106;2023-07-20T09:54:23;8.30;;;2.88;;
58685;SDS011;44465;53.206;-6.106;2023-07-20T09:56:50;5.80;;;3.13;;
58685;SDS011;44465;53.206;-6.106;2023-07-20T09:59:17;6.60;;;3.10;;
58685;SDS011;44465;53.206;-6.106;2023-07-20T10:01:43;9.00;;;3.10;;
58685;SDS011;44465;53.206;-6.106;2023-07-20T10:04:11;6.53;;;2.63;;
58685;SDS011;44465;53.206;-6.106;2023-07-20T10:06:39;5.10;;;3.03;;
58685;SDS011;44465;53.206;-6.106;2023-07-20T10:09:07;7.63;;;3.03;;
58685;SDS011;44465;53.206;-6.106;2023-07-20T10:11:37;4.47;;;2.67;;
58685;SDS011;44465;53.206;-6.106;2023-07-20T10:14:08;4.25;;;2.58;;
58685;SDS011;44465;53.206;-6.106;2023-07-20T10:16:39;7.53;;;3.25;;
58685;SDS011;44465;53.206;-6.106;2023-07-20T10:21:48;4.82;;;3.35;;
58685;SDS011;44465;53.206;-6.106;2023-07-20T10:24:21;6.47;;;3.00;;
58685;SDS011;44465;53.206;-6.106;2023-07-20T10:26:48;4.47;;;3.03;;
58685;SDS011;44465;53.206;-6.106;2023-07-20T10:29:14;3.78;;;3.05;;
58685;SDS011;44465;53.206;-6.106;2023-07-20T10:31:40;5.05;;;3.10;;
58685;SDS011;44465;53.206;-6.106;2023-07-20T10:34:06;4.75;;;3.10;;
58685;SDS011;44465;53.206;-6.106;2023-07-20T10:36:32;6.97;;;3.20;;
58685;SDS011;44465;53.206;-6.106;2023-07-20T10:38:58;4.88;;;2.85;;
58685;SDS011;44465;53.206;-6.106;2023-07-20T10:43:59;5.10;;;3.35;;
58685;SDS011;44465;53.206;-6.106;2023-07-20T10:49:00;4.72;;;2.85;;
58685;SDS011;44465;53.206;-6.106;2023-07-20T10:51:30;4.78;;;2.97;;
58685;SDS011;44465;53.206;-6.106;2023-07-20T10:54:03;5.30;;;3.35;;
58685;SDS011;44465;53.206;-6.106;2023-07-20T10:56:33;3.80;;;3.10;;
58685;SDS011;44465;53.206;-6.106;2023-07-20T10:58:59;4.85;;;3.20;;
58685;SDS011;44465;53.206;-6.106;2023-07-20T11:01:29;3.53;;;3.08;;
58685;SDS011;44465;53.206;-6.106;2023-07-20T11:03:59;4.93;;;3.30;;
58685;SDS011;44465;53.206;-6.106;2023-07-20T11:14:25;5.40;;;3.30;;
58685;SDS011;44465;53.206;-6.106;2023-07-20T11:16:52;7.38;;;3.13;;
58685;SDS011;44465;53.206;-6.106;2023-07-20T11:19:21;5.25;;;3.25;;
58685;SDS011;44465;53.206;-6.106;2023-07-20T11:21:52;5.20;;;3.20;;
58685;SDS011;44465;53.206;-6.106;2023-07-20T11:24:19;5.57;;;3.50;;
58685;SDS011;44465;53.206;-6.106;2023-07-20T11:26:48;6.38;;;3.72;;
58685;SDS011;44465;53.206;-6.106;2023-07-20T11:29:17;4.80;;;3.33;;
58685;SDS011;44465;53.206;-6.106;2023-07-20T11:31:47;5.00;;;3.33;;
58685;SDS011;44465;53.206;-6.106;2023-07-20T11:34:16;5.43;;;3.20;;
58685;SDS011;44465;53.206;-6.106;2023-07-20T11:36:44;4.35;;;3.10;;
58685;SDS011;44465;53.206;-6.106;2023-07-20T11:39:11;5.70;;;3.45;;
58685;SDS011;44465;53.206;-6.106;2023-07-20T11:41:38;4.68;;;3.50;;
58685;SDS011;44465;53.206;-6.106;2023-07-20T11:44:05;3.97;;;3.10;;
58685;SDS011;44465;53.206;-6.106;2023-07-20T11:46:38;5.10;;;3.50;;
58685;SDS011;44465;53.206;-6.106;2023-07-20T11:49:04;5.18;;;3.22;;
58685;SDS011;44465;53.206;-6.106;2023-07-20T11:51:31;4.93;;;3.40;;
58685;SDS011;44465;53.206;-6.106;2023-07-20T11:53:57;5.45;;;3.90;;
58685;SDS011;44465;53.206;-6.106;2023-07-20T11:56:24;5.68;;;3.63;;
58685;SDS011;44465;53.206;-6.106;2023-07-20T11:58:50;4.47;;;3.20;;
58685;SDS011;44465;53.206;-6.106;2023-07-20T12:01:19;5.15;;;3.53;;
58685;SDS011;44465;53.206;-6.106;2023-07-20T12:03:45;4.90;;;3.83;;
58685;SDS011;44465;53.206;-6.106;2023-07-20T12:08:41;4.80;;;3.30;;
58685;SDS011;44465;53.206;-6.106;2023-07-20T12:11:08;5.57;;;3.92;;
58685;SDS011;44465;53.206;-6.106;2023-07-20T12:13:42;5.38;;;3.42;;
58685;SDS011;44465;53.206;-6.106;2023-07-20T12:16:09;5.10;;;3.60;;
58685;SDS011;44465;53.206;-6.106;2023-07-20T12:18:35;5.13;;;3.85;;
58685;SDS011;44465;53.206;-6.106;2023-07-20T12:21:01;4.60;;;3.50;;
58685;SDS011;44465;53.206;-6.106;2023-07-20T12:23:34;6.78;;;3.72;;
58685;SDS011;44465;53.206;-6.106;2023-07-20T12:26:00;5.13;;;3.38;;
58685;SDS011;44465;53.206;-6.106;2023-07-20T12:28:26;3.95;;;3.35;;
58685;SDS011;44465;53.206;-6.106;2023-07-20T12:30:51;5.10;;;3.60;;
58685;SDS011;44465;53.206;-6.106;2023-07-20T12:33:21;5.00;;;3.42;;
58685;SDS011;44465;53.206;-6.106;2023-07-20T12:35:48;7.28;;;3.85;;
58685;SDS011;44465;53.206;-6.106;2023-07-20T12:38:14;4.93;;;3.55;;
58685;SDS011;44465;53.206;-6.106;2023-07-20T12:40:41;4.68;;;3.72;;
58685;SDS011;44465;53.206;-6.106;2023-07-20T12:43:07;5.65;;;3.70;;
58685;SDS011;44465;53.206;-6.106;2023-07-20T12:45:32;5.70;;;3.60;;
58685;SDS011;44465;53.206;-6.106;2023-07-20T12:47:58;5.30;;;3.78;;
58685;SDS011;44465;53.206;-6.106;2023-07-20T12:50:24;6.30;;;3.78;;
58685;SDS011;44465;53.206;-6.106;2023-07-20T12:52:49;13.75;;;4.65;;
58685;SDS011;44465;53.206;-6.106;2023-07-20T12:55:15;9.15;;;3.85;;
58685;SDS011;44465;53.206;-6.106;2023-07-20T12:57:40;11.65;;;3.80;;
58685;SDS011;44465;53.206;-6.106;2023-07-20T13:00:07;7.00;;;4.00;;
58685;SDS011;44465;53.206;-6.106;2023-07-20T13:02:34;10.50;;;4.25;;
58685;SDS011;44465;53.206;-6.106;2023-07-20T13:05:01;12.25;;;4.13;;
58685;SDS011;44465;53.206;-6.106;2023-07-20T13:07:31;8.63;;;3.60;;
58685;SDS011;44465;53.206;-6.106;2023-07-20T13:09:58;6.97;;;3.92;;
58685;SDS011;44465;53.206;-6.106;2023-07-20T13:12:26;9.60;;;4.25;;
58685;SDS011;44465;53.206;-6.106;2023-07-20T13:14:54;7.38;;;3.90;;
58685;SDS011;44465;53.206;-6.106;2023-07-20T13:17:21;8.88;;;3.78;;
58685;SDS011;44465;53.206;-6.106;2023-07-20T13:19:47;8.07;;;4.28;;
58685;SDS011;44465;53.206;-6.106;2023-07-20T13:22:12;8.60;;;4.22;;
58685;SDS011;44465;53.206;-6.106;2023-07-20T13:24:40;5.95;;;3.60;;
58685;SDS011;44465;53.206;-6.106;2023-07-20T13:27:06;10.90;;;4.15;;
58685;SDS011;44465;53.206;-6.106;2023-07-20T13:29:31;6.93;;;3.75;;
58685;SDS011;44465;53.206;-6.106;2023-07-20T13:31:58;6.32;;;3.75;;
58685;SDS011;44465;53.206;-6.106;2023-07-20T13:34:24;7.95;;;3.97;;
58685;SDS011;44465;53.206;-6.106;2023-07-20T13:36:51;6.82;;;4.05;;
58685;SDS011;44465;53.206;-6.106;2023-07-20T13:39:16;7.15;;;3.90;;
58685;SDS011;44465;53.206;-6.106;2023-07-20T13:41:42;6.07;;;3.65;;
58685;SDS011;44465;53.206;-6.106;2023-07-20T13:44:07;6.80;;;3.55;;
58685;SDS011;44465;53.206;-6.106;2023-07-20T13:46:33;7.63;;;3.90;;
58685;SDS011;44465;53.206;-6.106;2023-07-20T13:48:59;7.32;;;4.05;;
58685;SDS011;44465;53.206;-6.106;2023-07-20T13:51:24;9.65;;;4.28;;
58685;SDS011;44465;53.206;-6.106;2023-07-20T13:53:50;5.93;;;3.83;;
58685;SDS011;44465;53.206;-6.106;2023-07-20T13:56:16;6.15;;;3.38;;
58685;SDS011;44465;53.206;-6.106;2023-07-20T13:58:41;6.13;;;3.40;;
58685;SDS011;44465;53.206;-6.106;2023-07-20T14:01:07;5.93;;;3.47;;
58685;SDS011;44465;53.206;-6.106;2023-07-20T14:03:33;5.65;;;3.72;;
58685;SDS011;44465;53.206;-6.106;2023-07-20T14:05:58;6.00;;;3.72;;
58685;SDS011;44465;53.206;-6.106;2023-07-20T14:08:24;6.95;;;3.90;;
58685;SDS011;44465;53.206;-6.106;2023-07-20T14:10:49;5.50;;;3.70;;
58685;SDS011;44465;53.206;-6.106;2023-07-20T14:13:15;6.18;;;3.75;;
58685;SDS011;44465;53.206;-6.106;2023-07-20T14:15:40;8.00;;;4.22;;
58685;SDS011;44465;53.206;-6.106;2023-07-20T14:18:06;7.20;;;4.00;;
58685;SDS011;44465;53.206;-6.106;2023-07-20T14:20:31;8.25;;;4.28;;
58685;SDS011;44465;53.206;-6.106;2023-07-20T14:22:56;6.68;;;4.13;;
58685;SDS011;44465;53.206;-6.106;2023-07-20T14:25:22;5.03;;;3.55;;
58685;SDS011;44465;53.206;-6.106;2023-07-20T14:27:47;6.80;;;3.75;;
58685;SDS011;44465;53.206;-6.106;2023-07-20T14:30:13;6.68;;;3.92;;
58685;SDS011;44465;53.206;-6.106;2023-07-20T14:32:40;4.72;;;3.40;;
58685;SDS011;44465;53.206;-6.106;2023-07-20T14:35:05;8.77;;;4.38;;
58685;SDS011;44465;53.206;-6.106;2023-07-20T14:37:32;6.10;;;3.70;;
58685;SDS011;44465;53.206;-6.106;2023-07-20T14:39:58;8.27;;;4.22;;
58685;SDS011;44465;53.206;-6.106;2023-07-20T14:42:24;7.70;;;4.10;;
58685;SDS011;44465;53.206;-6.106;2023-07-20T14:44:49;4.88;;;3.50;;
58685;SDS011;44465;53.206;-6.106;2023-07-20T14:47:14;5.57;;;3.88;;
58685;SDS011;44465;53.206;-6.106;2023-07-20T14:49:40;5.15;;;3.78;;
58685;SDS011;44465;53.206;-6.106;2023-07-20T14:52:06;7.22;;;3.83;;
58685;SDS011;44465;53.206;-6.106;2023-07-20T14:54:32;5.97;;;3.47;;
58685;SDS011;44465;53.206;-6.106;2023-07-20T14:56:57;5.47;;;3.80;;
58685;SDS011;44465;53.206;-6.106;2023-07-20T14:59:23;5.78;;;3.45;;
58685;SDS011;44465;53.206;-6.106;2023-07-20T15:01:48;5.53;;;3.60;;
58685;SDS011;44465;53.206;-6.106;2023-07-20T15:04:14;5.72;;;4.13;;
58685;SDS011;44465;53.206;-6.106;2023-07-20T15:06:40;6.32;;;3.70;;